sensor_id;sensor_type;location;lat;lon;timestamp;pressure;altitude;pressure_sealevel;temperature;humidity
50632;BME280;49583;45.590;-122.498;2023-02-28T00:01:05;99213.36;;;6.19;74.57
50632;BME280;49583;45.590;-122.498;2023-02-28T00:03:19;99209.02;;;6.18;74.13
50632;BME280;49583;45.590;-122.498;2023-02-28T00:05:33;99209.15;;;6.17;74.29
50632;BME280;49583;45.590;-122.498;2023-02-28T00:07:47;99204.59;;;6.14;74.02
50632;BME280;49583;45.590;-122.498;2023-02-28T00:10:01;99201.84;;;6.12;74.09
50632;BME280;49583;45.590;-122.498;2023-02-28T00:12:14;99201.76;;;6.11;74.19
50632;BME280;49583;45.590;-122.498;2023-02-28T00:14:27;99197.56;;;6.11;73.69
50632;BME280;49583;45.590;-122.498;2023-02-28T00:16:40;99185.53;;;6.06;73.43
50632;BME280;49583;45.590;-122.498;2023-02-28T00:18:54;99184.43;;;6.01;73.15
50632;BME280;49583;45.590;-122.498;2023-02-28T00:21:07;99181.33;;;5.95;73.21
50632;BME280;49583;45.590;-122.498;2023-02-28T00:23:23;99178.16;;;5.88;73.09
50632;BME280;49583;45.590;-122.498;2023-02-28T00:25:37;99174.67;;;5.85;73.14
50632;BME280;49583;45.590;-122.498;2023-02-28T00:27:51;99173.14;;;5.81;73.17
50632;BME280;49583;45.590;-122.498;2023-02-28T00:30:06;99174.48;;;5.77;73.11
50632;BME280;49583;45.590;-122.498;2023-02-28T00:32:21;99173.09;;;5.73;72.77
50632;BME280;49583;45.590;-122.498;2023-02-28T00:34:34;99170.65;;;5.66;72.76
50632;BME280;49583;45.590;-122.498;2023-02-28T00:36:49;99176.98;;;5.59;72.72
50632;BME280;49583;45.590;-122.498;2023-02-28T00:39:02;99178.45;;;5.51;72.42
50632;BME280;49583;45.590;-122.498;2023-02-28T00:41:16;99170.46;;;5.41;72.30
50632;BME280;49583;45.590;-122.498;2023-02-28T00:43:29;99167.14;;;5.33;72.49
50632;BME280;49583;45.590;-122.498;2023-02-28T00:45:43;99170.93;;;5.24;72.65
50632;BME280;49583;45.590;-122.498;2023-02-28T00:47:55;99177.78;;;5.17;72.89
50632;BME280;49583;45.590;-122.498;2023-02-28T00:50:11;99182.77;;;5.07;73.06
50632;BME280;49583;45.590;-122.498;2023-02-28T00:52:24;99193.86;;;5.03;72.91
50632;BME280;49583;45.590;-122.498;2023-02-28T00:54:37;99183.23;;;4.95;72.88
50632;BME280;49583;45.590;-122.498;2023-02-28T00:56:51;99175.67;;;4.89;73.13
50632;BME280;49583;45.590;-122.498;2023-02-28T00:59:03;99175.06;;;4.81;72.90
50632;BME280;49583;45.590;-122.498;2023-02-28T01:01:17;99169.29;;;4.76;72.86
50632;BME280;49583;45.590;-122.498;2023-02-28T01:03:31;99170.16;;;4.73;73.12
50632;BME280;49583;45.590;-122.498;2023-02-28T01:05:44;99172.42;;;4.70;72.98
50632;BME280;49583;45.590;-122.498;2023-02-28T01:07:58;99167.44;;;4.64;72.75
50632;BME280;49583;45.590;-122.498;2023-02-28T01:10:12;99167.87;;;4.60;73.04
50632;BME280;49583;45.590;-122.498;2023-02-28T01:12:25;99163.69;;;4.56;73.05
50632;BME280;49583;45.590;-122.498;2023-02-28T01:14:40;99163.02;;;4.53;73.21
50632;BME280;49583;45.590;-122.498;2023-02-28T01:16:54;99164.00;;;4.52;73.38
50632;BME280;49583;45.590;-122.498;2023-02-28T01:19:07;99162.15;;;4.52;73.61
50632;BME280;49583;45.590;-122.498;2023-02-28T01:21:22;99160.44;;;4.52;73.31
50632;BME280;49583;45.590;-122.498;2023-02-28T01:23:37;99161.09;;;4.50;73.34
50632;BME280;49583;45.590;-122.498;2023-02-28T01:25:52;99163.50;;;4.47;73.42
50632;BME280;49583;45.590;-122.498;2023-02-28T01:28:06;99164.11;;;4.42;73.35
50632;BME280;49583;45.590;-122.498;2023-02-28T01:30:19;99160.02;;;4.39;73.33
50632;BME280;49583;45.590;-122.498;2023-02-28T01:34:45;99154.98;;;4.33;73.33
50632;BME280;49583;45.590;-122.498;2023-02-28T01:36:59;99151.16;;;4.31;73.36
50632;BME280;49583;45.590;-122.498;2023-02-28T01:39:12;99157.13;;;4.28;73.38
50632;BME280;49583;45.590;-122.498;2023-02-28T01:41:28;99155.46;;;4.26;73.47
50632;BME280;49583;45.590;-122.498;2023-02-28T01:46:27;99149.08;;;4.27;73.53
50632;BME280;49583;45.590;-122.498;2023-02-28T01:48:43;99153.90;;;4.25;73.48
50632;BME280;49583;45.590;-122.498;2023-02-28T01:51:02;99147.80;;;4.22;73.57
50632;BME280;49583;45.590;-122.498;2023-02-28T01:53:21;99151.20;;;4.22;73.46
50632;BME280;49583;45.590;-122.498;2023-02-28T01:55:37;99147.40;;;4.21;73.63
50632;BME280;49583;45.590;-122.498;2023-02-28T01:57:55;99151.84;;;4.23;73.73
50632;BME280;49583;45.590;-122.498;2023-02-28T02:00:16;99144.91;;;4.21;73.75
50632;BME280;49583;45.590;-122.498;2023-02-28T02:02:31;99143.52;;;4.21;73.75
50632;BME280;49583;45.590;-122.498;2023-02-28T02:04:50;99149.48;;;4.21;73.61
50632;BME280;49583;45.590;-122.498;2023-02-28T02:07:05;99146.18;;;4.19;73.72
50632;BME280;49583;45.590;-122.498;2023-02-28T02:09:18;99148.54;;;4.21;73.84
50632;BME280;49583;45.590;-122.498;2023-02-28T02:11:31;99138.48;;;4.18;73.89
50632;BME280;49583;45.590;-122.498;2023-02-28T02:14:14;99140.86;;;4.16;74.17
50632;BME280;49583;45.590;-122.498;2023-02-28T02:16:45;99163.22;;;4.13;74.02
50632;BME280;49583;45.590;-122.498;2023-02-28T02:19:13;99172.27;;;4.09;74.23
50632;BME280;49583;45.590;-122.498;2023-02-28T02:21:54;99173.70;;;4.04;74.14
50632;BME280;49583;45.590;-122.498;2023-02-28T02:24:41;99169.10;;;4.02;74.20
50632;BME280;49583;45.590;-122.498;2023-02-28T02:27:34;99174.15;;;4.00;74.32
50632;BME280;49583;45.590;-122.498;2023-02-28T02:30:17;99164.41;;;3.98;74.82
50632;BME280;49583;45.590;-122.498;2023-02-28T02:33:00;99153.40;;;3.97;74.64
50632;BME280;49583;45.590;-122.498;2023-02-28T02:35:15;99154.40;;;3.96;75.04
50632;BME280;49583;45.590;-122.498;2023-02-28T02:37:36;99152.85;;;3.96;75.03
50632;BME280;49583;45.590;-122.498;2023-02-28T02:39:58;99154.06;;;3.95;75.23
50632;BME280;49583;45.590;-122.498;2023-02-28T02:42:19;99153.95;;;3.97;75.16
50632;BME280;49583;45.590;-122.498;2023-02-28T02:44:40;99152.62;;;3.99;75.19
50632;BME280;49583;45.590;-122.498;2023-02-28T02:46:58;99152.97;;;4.01;75.24
50632;BME280;49583;45.590;-122.498;2023-02-28T02:49:18;99147.83;;;4.04;75.26
50632;BME280;49583;45.590;-122.498;2023-02-28T02:51:35;99148.68;;;4.06;75.22
50632;BME280;49583;45.590;-122.498;2023-02-28T02:53:56;99149.77;;;4.09;75.25
50632;BME280;49583;45.590;-122.498;2023-02-28T02:56:13;99149.11;;;4.12;75.32
50632;BME280;49583;45.590;-122.498;2023-02-28T02:58:30;99147.63;;;4.15;74.99
50632;BME280;49583;45.590;-122.498;2023-02-28T03:00:47;99153.27;;;4.18;75.11
50632;BME280;49583;45.590;-122.498;2023-02-28T03:03:05;99154.32;;;4.20;74.86
50632;BME280;49583;45.590;-122.498;2023-02-28T03:05:24;99158.26;;;4.22;74.76
50632;BME280;49583;45.590;-122.498;2023-02-28T03:07:38;99162.31;;;4.24;74.94
50632;BME280;49583;45.590;-122.498;2023-02-28T03:09:57;99159.48;;;4.25;74.63
50632;BME280;49583;45.590;-122.498;2023-02-28T03:12:14;99159.48;;;4.25;74.67
50632;BME280;49583;45.590;-122.498;2023-02-28T03:14:42;99157.92;;;4.25;74.56
50632;BME280;49583;45.590;-122.498;2023-02-28T03:17:13;99160.26;;;4.25;74.64
50632;BME280;49583;45.590;-122.498;2023-02-28T03:19:37;99169.55;;;4.26;74.65
50632;BME280;49583;45.590;-122.498;2023-02-28T03:22:02;99168.92;;;4.26;74.47
50632;BME280;49583;45.590;-122.498;2023-02-28T03:24:22;99166.54;;;4.25;74.37
50632;BME280;49583;45.590;-122.498;2023-02-28T03:26:42;99163.16;;;4.23;74.40
50632;BME280;49583;45.590;-122.498;2023-02-28T03:29:00;99165.04;;;4.24;74.54
50632;BME280;49583;45.590;-122.498;2023-02-28T03:31:20;99166.55;;;4.23;74.41
50632;BME280;49583;45.590;-122.498;2023-02-28T03:33:42;99163.29;;;4.22;74.56
50632;BME280;49583;45.590;-122.498;2023-02-28T03:35:59;99161.59;;;4.23;74.41
50632;BME280;49583;45.590;-122.498;2023-02-28T03:38:18;99161.02;;;4.21;74.16
50632;BME280;49583;45.590;-122.498;2023-02-28T03:40:35;99161.13;;;4.22;74.27
50632;BME280;49583;45.590;-122.498;2023-02-28T03:42:53;99158.30;;;4.24;74.29
50632;BME280;49583;45.590;-122.498;2023-02-28T03:45:14;99160.19;;;4.26;74.34
50632;BME280;49583;45.590;-122.498;2023-02-28T03:47:31;99162.65;;;4.29;74.36
50632;BME280;49583;45.590;-122.498;2023-02-28T03:49:49;99160.83;;;4.30;74.03
50632;BME280;49583;45.590;-122.498;2023-02-28T03:52:05;99163.01;;;4.31;74.14
50632;BME280;49583;45.590;-122.498;2023-02-28T03:54:22;99162.02;;;4.31;74.19
50632;BME280;49583;45.590;-122.498;2023-02-28T03:56:40;99158.23;;;4.32;74.33
50632;BME280;49583;45.590;-122.498;2023-02-28T03:59:00;99156.36;;;4.32;73.98
50632;BME280;49583;45.590;-122.498;2023-02-28T04:01:19;99158.73;;;4.31;74.11
50632;BME280;49583;45.590;-122.498;2023-02-28T04:03:34;99153.76;;;4.30;74.32
50632;BME280;49583;45.590;-122.498;2023-02-28T04:05:54;99158.91;;;4.28;74.35
50632;BME280;49583;45.590;-122.498;2023-02-28T04:08:09;99163.09;;;4.28;74.22
50632;BME280;49583;45.590;-122.498;2023-02-28T04:10:22;99170.63;;;4.30;74.22
50632;BME280;49583;45.590;-122.498;2023-02-28T04:12:35;99173.91;;;4.28;74.29
50632;BME280;49583;45.590;-122.498;2023-02-28T04:14:48;99176.52;;;4.26;74.53
50632;BME280;49583;45.590;-122.498;2023-02-28T04:17:01;99176.83;;;4.26;74.45
50632;BME280;49583;45.590;-122.498;2023-02-28T04:19:14;99181.41;;;4.27;74.68
50632;BME280;49583;45.590;-122.498;2023-02-28T04:21:27;99184.28;;;4.27;74.88
50632;BME280;49583;45.590;-122.498;2023-02-28T04:23:40;99190.54;;;4.26;74.65
50632;BME280;49583;45.590;-122.498;2023-02-28T04:25:57;99194.84;;;4.24;74.79
50632;BME280;49583;45.590;-122.498;2023-02-28T04:28:10;99189.80;;;4.17;75.08
50632;BME280;49583;45.590;-122.498;2023-02-28T04:30:23;99188.50;;;4.12;75.35
50632;BME280;49583;45.590;-122.498;2023-02-28T04:32:36;99188.94;;;4.09;74.95
50632;BME280;49583;45.590;-122.498;2023-02-28T04:34:48;99189.52;;;4.08;75.15
50632;BME280;49583;45.590;-122.498;2023-02-28T04:37:01;99187.52;;;4.06;75.14
50632;BME280;49583;45.590;-122.498;2023-02-28T04:39:25;99187.61;;;4.03;75.34
50632;BME280;49583;45.590;-122.498;2023-02-28T04:41:41;99186.43;;;4.02;75.48
50632;BME280;49583;45.590;-122.498;2023-02-28T04:43:54;99184.34;;;3.99;75.40
50632;BME280;49583;45.590;-122.498;2023-02-28T04:46:10;99184.27;;;3.99;75.68
50632;BME280;49583;45.590;-122.498;2023-02-28T04:48:23;99188.20;;;3.99;75.41
50632;BME280;49583;45.590;-122.498;2023-02-28T04:50:38;99185.56;;;3.98;75.89
50632;BME280;49583;45.590;-122.498;2023-02-28T04:52:51;99186.84;;;3.97;75.99
50632;BME280;49583;45.590;-122.498;2023-02-28T04:55:06;99186.44;;;3.97;75.87
50632;BME280;49583;45.590;-122.498;2023-02-28T04:57:19;99189.66;;;3.95;75.59
50632;BME280;49583;45.590;-122.498;2023-02-28T04:59:33;99190.96;;;3.94;75.95
50632;BME280;49583;45.590;-122.498;2023-02-28T05:01:48;99193.24;;;3.93;75.93
50632;BME280;49583;45.590;-122.498;2023-02-28T05:04:06;99198.50;;;3.92;76.16
50632;BME280;49583;45.590;-122.498;2023-02-28T05:06:22;99201.81;;;3.92;76.05
50632;BME280;49583;45.590;-122.498;2023-02-28T05:08:36;99199.34;;;3.92;76.10
50632;BME280;49583;45.590;-122.498;2023-02-28T05:10:49;99208.30;;;3.91;76.05
50632;BME280;49583;45.590;-122.498;2023-02-28T05:13:02;99209.30;;;3.91;75.97
50632;BME280;49583;45.590;-122.498;2023-02-28T05:15:18;99212.11;;;3.90;75.99
50632;BME280;49583;45.590;-122.498;2023-02-28T05:17:33;99220.22;;;3.89;76.18
50632;BME280;49583;45.590;-122.498;2023-02-28T05:19:49;99221.64;;;3.90;76.01
50632;BME280;49583;45.590;-122.498;2023-02-28T05:22:15;99226.66;;;3.89;76.08
50632;BME280;49583;45.590;-122.498;2023-02-28T05:24:29;99228.70;;;3.90;76.10
50632;BME280;49583;45.590;-122.498;2023-02-28T05:26:42;99227.90;;;3.89;76.24
50632;BME280;49583;45.590;-122.498;2023-02-28T05:28:55;99229.30;;;3.90;75.97
50632;BME280;49583;45.590;-122.498;2023-02-28T05:31:10;99229.72;;;3.91;76.21
50632;BME280;49583;45.590;-122.498;2023-02-28T05:33:24;99232.29;;;3.91;76.01
50632;BME280;49583;45.590;-122.498;2023-02-28T05:35:40;99234.88;;;3.93;75.99
50632;BME280;49583;45.590;-122.498;2023-02-28T05:37:54;99241.19;;;3.94;76.10
50632;BME280;49583;45.590;-122.498;2023-02-28T05:40:09;99237.93;;;3.94;75.89
50632;BME280;49583;45.590;-122.498;2023-02-28T05:42:23;99246.52;;;3.94;75.95
50632;BME280;49583;45.590;-122.498;2023-02-28T05:44:36;99256.79;;;3.93;75.93
50632;BME280;49583;45.590;-122.498;2023-02-28T05:46:49;99265.55;;;3.91;76.16
50632;BME280;49583;45.590;-122.498;2023-02-28T05:49:02;99267.92;;;3.91;76.09
50632;BME280;49583;45.590;-122.498;2023-02-28T05:51:14;99271.27;;;3.88;76.02
50632;BME280;49583;45.590;-122.498;2023-02-28T05:53:27;99269.52;;;3.86;76.04
50632;BME280;49583;45.590;-122.498;2023-02-28T05:55:41;99276.83;;;3.87;76.18
50632;BME280;49583;45.590;-122.498;2023-02-28T05:57:55;99281.55;;;3.87;75.94
50632;BME280;49583;45.590;-122.498;2023-02-28T06:00:09;99278.92;;;3.88;76.13
50632;BME280;49583;45.590;-122.498;2023-02-28T06:02:22;99288.02;;;3.89;76.06
50632;BME280;49583;45.590;-122.498;2023-02-28T06:04:36;99293.30;;;3.87;76.16
50632;BME280;49583;45.590;-122.498;2023-02-28T06:06:50;99293.42;;;3.83;76.20
50632;BME280;49583;45.590;-122.498;2023-02-28T06:09:04;99301.46;;;3.80;76.12
50632;BME280;49583;45.590;-122.498;2023-02-28T06:11:17;99289.39;;;3.76;76.14
50632;BME280;49583;45.590;-122.498;2023-02-28T06:13:31;99295.39;;;3.72;76.09
50632;BME280;49583;45.590;-122.498;2023-02-28T06:15:45;99295.84;;;3.69;76.04
50632;BME280;49583;45.590;-122.498;2023-02-28T06:17:58;99300.81;;;3.67;76.21
50632;BME280;49583;45.590;-122.498;2023-02-28T06:20:14;99302.38;;;3.65;75.93
50632;BME280;49583;45.590;-122.498;2023-02-28T06:22:28;99305.41;;;3.62;76.09
50632;BME280;49583;45.590;-122.498;2023-02-28T06:24:42;99306.39;;;3.61;76.42
50632;BME280;49583;45.590;-122.498;2023-02-28T06:26:58;99304.07;;;3.58;76.11
50632;BME280;49583;45.590;-122.498;2023-02-28T06:29:16;99307.41;;;3.59;76.60
50632;BME280;49583;45.590;-122.498;2023-02-28T06:31:29;99306.55;;;3.59;76.41
50632;BME280;49583;45.590;-122.498;2023-02-28T06:33:43;99299.11;;;3.58;76.56
50632;BME280;49583;45.590;-122.498;2023-02-28T06:35:56;99298.95;;;3.58;76.52
50632;BME280;49583;45.590;-122.498;2023-02-28T06:38:09;99302.02;;;3.59;76.65
50632;BME280;49583;45.590;-122.498;2023-02-28T06:40:27;99306.66;;;3.60;76.52
50632;BME280;49583;45.590;-122.498;2023-02-28T06:42:42;99309.09;;;3.59;76.64
50632;BME280;49583;45.590;-122.498;2023-02-28T06:44:56;99317.60;;;3.59;76.56
50632;BME280;49583;45.590;-122.498;2023-02-28T06:47:09;99318.14;;;3.59;76.64
50632;BME280;49583;45.590;-122.498;2023-02-28T06:49:23;99317.12;;;3.58;76.82
50632;BME280;49583;45.590;-122.498;2023-02-28T06:51:38;99324.04;;;3.56;76.85
50632;BME280;49583;45.590;-122.498;2023-02-28T06:53:53;99326.27;;;3.53;76.97
50632;BME280;49583;45.590;-122.498;2023-02-28T06:56:10;99326.93;;;3.46;76.83
50632;BME280;49583;45.590;-122.498;2023-02-28T06:58:24;99328.95;;;3.41;77.01
50632;BME280;49583;45.590;-122.498;2023-02-28T07:00:37;99332.66;;;3.38;76.97
50632;BME280;49583;45.590;-122.498;2023-02-28T07:02:51;99327.98;;;3.36;77.16
50632;BME280;49583;45.590;-122.498;2023-02-28T07:05:07;99332.40;;;3.34;77.18
50632;BME280;49583;45.590;-122.498;2023-02-28T07:07:21;99337.02;;;3.34;77.29
50632;BME280;49583;45.590;-122.498;2023-02-28T07:09:35;99343.95;;;3.33;77.36
50632;BME280;49583;45.590;-122.498;2023-02-28T07:11:48;99351.16;;;3.31;77.15
50632;BME280;49583;45.590;-122.498;2023-02-28T07:14:01;99347.19;;;3.30;77.36
50632;BME280;49583;45.590;-122.498;2023-02-28T07:16:18;99350.91;;;3.30;77.26
50632;BME280;49583;45.590;-122.498;2023-02-28T07:18:31;99359.79;;;3.30;77.39
50632;BME280;49583;45.590;-122.498;2023-02-28T07:20:46;99361.10;;;3.30;77.69
50632;BME280;49583;45.590;-122.498;2023-02-28T07:22:59;99362.26;;;3.29;77.55
50632;BME280;49583;45.590;-122.498;2023-02-28T07:25:13;99360.76;;;3.29;77.66
50632;BME280;49583;45.590;-122.498;2023-02-28T07:27:29;99360.90;;;3.31;77.60
50632;BME280;49583;45.590;-122.498;2023-02-28T07:29:41;99367.44;;;3.32;77.77
50632;BME280;49583;45.590;-122.498;2023-02-28T07:31:55;99371.40;;;3.30;77.66
50632;BME280;49583;45.590;-122.498;2023-02-28T07:34:08;99374.34;;;3.33;77.58
50632;BME280;49583;45.590;-122.498;2023-02-28T07:36:21;99374.13;;;3.34;78.02
50632;BME280;49583;45.590;-122.498;2023-02-28T07:38:36;99373.42;;;3.34;77.86
50632;BME280;49583;45.590;-122.498;2023-02-28T07:40:49;99378.03;;;3.35;77.97
50632;BME280;49583;45.590;-122.498;2023-02-28T07:43:03;99377.96;;;3.38;77.88
50632;BME280;49583;45.590;-122.498;2023-02-28T07:45:16;99372.27;;;3.38;77.84
50632;BME280;49583;45.590;-122.498;2023-02-28T07:47:31;99373.66;;;3.39;77.76
50632;BME280;49583;45.590;-122.498;2023-02-28T07:49:45;99380.05;;;3.40;77.51
50632;BME280;49583;45.590;-122.498;2023-02-28T07:51:58;99386.06;;;3.40;77.67
50632;BME280;49583;45.590;-122.498;2023-02-28T07:54:11;99388.41;;;3.38;77.73
50632;BME280;49583;45.590;-122.498;2023-02-28T07:56:24;99386.10;;;3.36;77.87
50632;BME280;49583;45.590;-122.498;2023-02-28T07:58:37;99388.63;;;3.35;77.94
50632;BME280;49583;45.590;-122.498;2023-02-28T08:00:50;99390.89;;;3.33;77.93
50632;BME280;49583;45.590;-122.498;2023-02-28T08:03:03;99393.31;;;3.31;77.65
50632;BME280;49583;45.590;-122.498;2023-02-28T08:05:15;99401.45;;;3.31;77.85
50632;BME280;49583;45.590;-122.498;2023-02-28T08:07:31;99403.80;;;3.31;77.80
50632;BME280;49583;45.590;-122.498;2023-02-28T08:09:44;99393.03;;;3.30;77.81
50632;BME280;49583;45.590;-122.498;2023-02-28T08:11:57;99399.45;;;3.30;77.69
50632;BME280;49583;45.590;-122.498;2023-02-28T08:14:09;99403.89;;;3.29;77.77
50632;BME280;49583;45.590;-122.498;2023-02-28T08:16:22;99398.41;;;3.26;77.69
50632;BME280;49583;45.590;-122.498;2023-02-28T08:18:36;99391.42;;;3.23;77.69
50632;BME280;49583;45.590;-122.498;2023-02-28T08:20:49;99406.05;;;3.21;77.58
50632;BME280;49583;45.590;-122.498;2023-02-28T08:23:02;99401.15;;;3.18;77.76
50632;BME280;49583;45.590;-122.498;2023-02-28T08:25:17;99403.30;;;3.16;77.81
50632;BME280;49583;45.590;-122.498;2023-02-28T08:27:30;99422.16;;;3.14;77.70
50632;BME280;49583;45.590;-122.498;2023-02-28T08:29:43;99419.77;;;3.12;77.64
50632;BME280;49583;45.590;-122.498;2023-02-28T08:31:56;99425.59;;;3.10;77.88
50632;BME280;49583;45.590;-122.498;2023-02-28T08:34:11;99428.06;;;3.08;77.70
50632;BME280;49583;45.590;-122.498;2023-02-28T08:36:26;99447.73;;;3.07;77.98
50632;BME280;49583;45.590;-122.498;2023-02-28T08:38:39;99452.49;;;3.06;77.94
50632;BME280;49583;45.590;-122.498;2023-02-28T08:40:56;99444.22;;;3.06;77.87
50632;BME280;49583;45.590;-122.498;2023-02-28T08:43:09;99454.81;;;3.03;78.21
50632;BME280;49583;45.590;-122.498;2023-02-28T08:45:22;99450.23;;;3.03;78.03
50632;BME280;49583;45.590;-122.498;2023-02-28T08:47:34;99452.71;;;3.03;77.89
50632;BME280;49583;45.590;-122.498;2023-02-28T08:49:48;99463.36;;;3.03;78.10
50632;BME280;49583;45.590;-122.498;2023-02-28T08:52:00;99464.52;;;3.02;78.03
50632;BME280;49583;45.590;-122.498;2023-02-28T08:54:13;99475.09;;;3.01;78.08
50632;BME280;49583;45.590;-122.498;2023-02-28T08:56:30;99481.67;;;3.02;78.01
50632;BME280;49583;45.590;-122.498;2023-02-28T08:58:44;99488.16;;;3.02;77.98
50632;BME280;49583;45.590;-122.498;2023-02-28T09:00:58;99489.51;;;3.01;77.98
50632;BME280;49583;45.590;-122.498;2023-02-28T09:03:11;99490.34;;;3.00;78.00
50632;BME280;49583;45.590;-122.498;2023-02-28T09:05:25;99494.94;;;2.99;78.18
50632;BME280;49583;45.590;-122.498;2023-02-28T09:07:39;99490.77;;;2.97;78.02
50632;BME280;49583;45.590;-122.498;2023-02-28T09:09:53;99490.42;;;2.96;78.06
50632;BME280;49583;45.590;-122.498;2023-02-28T09:12:08;99489.64;;;2.96;78.03
50632;BME280;49583;45.590;-122.498;2023-02-28T09:14:21;99496.02;;;2.95;78.05
50632;BME280;49583;45.590;-122.498;2023-02-28T09:16:35;99499.22;;;2.96;78.28
50632;BME280;49583;45.590;-122.498;2023-02-28T09:18:49;99495.75;;;2.94;78.27
50632;BME280;49583;45.590;-122.498;2023-02-28T09:21:05;99499.80;;;2.95;78.24
50632;BME280;49583;45.590;-122.498;2023-02-28T09:23:18;99493.48;;;2.95;78.37
50632;BME280;49583;45.590;-122.498;2023-02-28T09:25:31;99501.52;;;2.95;78.36
50632;BME280;49583;45.590;-122.498;2023-02-28T09:27:44;99501.38;;;2.96;78.34
50632;BME280;49583;45.590;-122.498;2023-02-28T09:29:57;99502.91;;;2.95;78.30
50632;BME280;49583;45.590;-122.498;2023-02-28T09:32:10;99499.45;;;2.96;78.33
50632;BME280;49583;45.590;-122.498;2023-02-28T09:34:23;99504.91;;;2.97;78.28
50632;BME280;49583;45.590;-122.498;2023-02-28T09:36:36;99510.10;;;2.97;78.28
50632;BME280;49583;45.590;-122.498;2023-02-28T09:38:54;99515.21;;;2.97;78.33
50632;BME280;49583;45.590;-122.498;2023-02-28T09:41:17;99510.57;;;2.97;78.40
50632;BME280;49583;45.590;-122.498;2023-02-28T09:43:34;99512.64;;;2.97;78.56
50632;BME280;49583;45.590;-122.498;2023-02-28T09:45:51;99521.70;;;2.95;78.60
50632;BME280;49583;45.590;-122.498;2023-02-28T09:48:16;99524.75;;;2.94;78.60
50632;BME280;49583;45.590;-122.498;2023-02-28T09:50:37;99536.83;;;2.95;78.63
50632;BME280;49583;45.590;-122.498;2023-02-28T09:52:54;99550.64;;;2.94;78.43
50632;BME280;49583;45.590;-122.498;2023-02-28T09:55:22;99545.88;;;2.93;78.65
50632;BME280;49583;45.590;-122.498;2023-02-28T09:57:44;99546.35;;;2.91;78.57
50632;BME280;49583;45.590;-122.498;2023-02-28T10:00:18;99554.82;;;2.90;78.68
50632;BME280;49583;45.590;-122.498;2023-02-28T10:05:17;99576.11;;;2.87;78.56
50632;BME280;49583;45.590;-122.498;2023-02-28T10:07:49;99582.89;;;2.86;78.70
50632;BME280;49583;45.590;-122.498;2023-02-28T10:12:30;99585.77;;;2.83;78.75
50632;BME280;49583;45.590;-122.498;2023-02-28T10:14:49;99587.80;;;2.81;79.00
50632;BME280;49583;45.590;-122.498;2023-02-28T10:17:08;99597.15;;;2.79;78.96
50632;BME280;49583;45.590;-122.498;2023-02-28T10:19:30;99606.14;;;2.75;79.06
50632;BME280;49583;45.590;-122.498;2023-02-28T10:21:49;99607.21;;;2.70;79.18
50632;BME280;49583;45.590;-122.498;2023-02-28T10:24:26;99611.70;;;2.66;79.12
50632;BME280;49583;45.590;-122.498;2023-02-28T10:26:43;99622.42;;;2.64;79.15
50632;BME280;49583;45.590;-122.498;2023-02-28T10:28:57;99627.43;;;2.59;78.99
50632;BME280;49583;45.590;-122.498;2023-02-28T10:31:15;99634.58;;;2.56;79.02
50632;BME280;49583;45.590;-122.498;2023-02-28T10:33:33;99634.50;;;2.52;78.98
50632;BME280;49583;45.590;-122.498;2023-02-28T10:35:47;99638.45;;;2.48;78.91
50632;BME280;49583;45.590;-122.498;2023-02-28T10:38:04;99634.52;;;2.46;79.04
50632;BME280;49583;45.590;-122.498;2023-02-28T10:40:33;99636.30;;;2.46;79.02
50632;BME280;49583;45.590;-122.498;2023-02-28T10:42:57;99630.29;;;2.46;79.16
50632;BME280;49583;45.590;-122.498;2023-02-28T10:45:13;99624.56;;;2.46;79.13
50632;BME280;49583;45.590;-122.498;2023-02-28T10:47:27;99622.75;;;2.47;79.16
50632;BME280;49583;45.590;-122.498;2023-02-28T10:49:49;99620.70;;;2.48;79.21
50632;BME280;49583;45.590;-122.498;2023-02-28T10:52:03;99617.78;;;2.49;79.26
50632;BME280;49583;45.590;-122.498;2023-02-28T10:54:22;99612.92;;;2.49;79.40
50632;BME280;49583;45.590;-122.498;2023-02-28T10:56:39;99611.51;;;2.48;79.34
50632;BME280;49583;45.590;-122.498;2023-02-28T10:58:55;99605.02;;;2.47;79.30
50632;BME280;49583;45.590;-122.498;2023-02-28T11:01:16;99602.41;;;2.46;79.49
50632;BME280;49583;45.590;-122.498;2023-02-28T11:03:33;99605.71;;;2.48;79.13
50632;BME280;49583;45.590;-122.498;2023-02-28T11:05:49;99602.46;;;2.50;79.19
50632;BME280;49583;45.590;-122.498;2023-02-28T11:08:10;99603.73;;;2.51;79.20
50632;BME280;49583;45.590;-122.498;2023-02-28T11:10:26;99609.03;;;2.52;79.03
50632;BME280;49583;45.590;-122.498;2023-02-28T11:12:41;99616.65;;;2.53;78.98
50632;BME280;49583;45.590;-122.498;2023-02-28T11:15:02;99615.80;;;2.53;78.88
50632;BME280;49583;45.590;-122.498;2023-02-28T11:17:21;99626.19;;;2.53;78.66
50632;BME280;49583;45.590;-122.498;2023-02-28T11:19:43;99623.94;;;2.51;78.59
50632;BME280;49583;45.590;-122.498;2023-02-28T11:21:59;99619.75;;;2.50;78.48
50632;BME280;49583;45.590;-122.498;2023-02-28T11:24:24;99618.64;;;2.49;78.42
50632;BME280;49583;45.590;-122.498;2023-02-28T11:26:44;99625.55;;;2.46;78.19
50632;BME280;49583;45.590;-122.498;2023-02-28T11:29:10;99627.19;;;2.44;78.11
50632;BME280;49583;45.590;-122.498;2023-02-28T11:31:24;99636.63;;;2.43;78.21
50632;BME280;49583;45.590;-122.498;2023-02-28T11:33:46;99638.95;;;2.41;78.29
50632;BME280;49583;45.590;-122.498;2023-02-28T11:36:03;99645.57;;;2.41;78.28
50632;BME280;49583;45.590;-122.498;2023-02-28T11:38:18;99652.19;;;2.40;78.39
50632;BME280;49583;45.590;-122.498;2023-02-28T11:40:40;99658.61;;;2.38;78.40
50632;BME280;49583;45.590;-122.498;2023-02-28T11:43:04;99660.31;;;2.34;78.55
50632;BME280;49583;45.590;-122.498;2023-02-28T11:45:31;99661.17;;;2.30;78.90
50632;BME280;49583;45.590;-122.498;2023-02-28T11:48:00;99664.54;;;2.25;79.16
50632;BME280;49583;45.590;-122.498;2023-02-28T11:50:31;99671.84;;;2.22;79.15
50632;BME280;49583;45.590;-122.498;2023-02-28T11:52:55;99667.94;;;2.21;79.15
50632;BME280;49583;45.590;-122.498;2023-02-28T11:55:20;99663.42;;;2.22;79.22